地図

経路データ

SID SEASON NUMBER BASIN SUBBASIN NAME ISO_TIME NATURE LAT LON WMO_WIND WMO_PRES WMO_AGENCY TRACK_TYPE DIST2LAND LANDFALL IFLAG USA_AGENCY USA_ATCF_ID USA_LAT USA_LON USA_RECORD USA_STATUS USA_WIND USA_PRES USA_SSHS USA_R34_NE USA_R34_SE USA_R34_SW USA_R34_NW USA_R50_NE USA_R50_SE USA_R50_SW USA_R50_NW USA_R64_NE USA_R64_SE USA_R64_SW USA_R64_NW USA_POCI USA_ROCI USA_RMW USA_EYE TOKYO_LAT TOKYO_LON TOKYO_GRADE TOKYO_WIND TOKYO_PRES TOKYO_R50_DIR TOKYO_R50_LONG TOKYO_R50_SHORT TOKYO_R30_DIR TOKYO_R30_LONG TOKYO_R30_SHORT TOKYO_LAND CMA_LAT CMA_LON CMA_CAT CMA_WIND CMA_PRES HKO_LAT HKO_LON HKO_CAT HKO_WIND HKO_PRES NEWDELHI_LAT NEWDELHI_LON NEWDELHI_GRADE NEWDELHI_WIND NEWDELHI_PRES NEWDELHI_CI NEWDELHI_DP NEWDELHI_POCI REUNION_LAT REUNION_LON REUNION_TYPE REUNION_WIND REUNION_PRES REUNION_TNUM REUNION_CI REUNION_RMW REUNION_R34_NE REUNION_R34_SE REUNION_R34_SW REUNION_R34_NW REUNION_R50_NE REUNION_R50_SE REUNION_R50_SW REUNION_R50_NW REUNION_R64_NE REUNION_R64_SE REUNION_R64_SW REUNION_R64_NW BOM_LAT BOM_LON BOM_TYPE BOM_WIND BOM_PRES BOM_TNUM BOM_CI BOM_RMW BOM_R34_NE BOM_R34_SE BOM_R34_SW BOM_R34_NW BOM_R50_NE BOM_R50_SE BOM_R50_SW BOM_R50_NW BOM_R64_NE BOM_R64_SE BOM_R64_SW BOM_R64_NW BOM_ROCI BOM_POCI BOM_EYE BOM_POS_METHOD BOM_PRES_METHOD NADI_LAT NADI_LON NADI_CAT NADI_WIND NADI_PRES WELLINGTON_LAT WELLINGTON_LON WELLINGTON_WIND WELLINGTON_PRES DS824_LAT DS824_LON DS824_STAGE DS824_WIND DS824_PRES TD9636_LAT TD9636_LON TD9636_STAGE TD9636_WIND TD9636_PRES TD9635_LAT TD9635_LON TD9635_WIND TD9635_PRES TD9635_ROCI NEUMANN_LAT NEUMANN_LON NEUMANN_CLASS NEUMANN_WIND NEUMANN_PRES MLC_LAT MLC_LON MLC_CLASS MLC_WIND MLC_PRES USA_GUST BOM_GUST BOM_GUST_PER REUNION_GUST REUNION_GUST_PER USA_SEAHGT USA_SEARAD_NE USA_SEARAD_SE USA_SEARAD_SW USA_SEARAD_NW STORM_SPEED STORM_DIR
1954297N17138 1954 83 WP MM NOT_NAMED 1954-10-24 00:00:00 TS 17.3333 138.400 1004 tokyo main 1499 1492 OOO______OOO__ jtwc_wp WP151954 17.0000 138.600 30 -1 18.0000 138.000 2 1004 0 0 0 18.0000 138.000 1 29 1004 17.0000 138.600 TC 30 17.0000 138.600 1 30 17.0000 138.600 30 1006 120 11 332
1954297N17138 1954 83 WP MM NOT_NAMED 1954-10-24 03:00:00 TS 17.8017 138.143 main 1491 1485 PPP______PPP__ WP151954 17.5476 138.318 30 -1 18.3000 137.820 2 1004 0 0 18.3000 137.820 1 29 1004 17.5476 138.318 TC 30 17.5674 138.263 1 30 17.5476 138.318 30 1005 120 11 331
1954297N17138 1954 83 WP MM NOT_NAMED 1954-10-24 06:00:00 TS 18.2713 137.853 1004 tokyo main 1494 1477 OOO______OPO__ jtwc_wp WP151954 18.1000 138.000 30 -1 18.6000 137.600 9 1004 0 0 0 18.6000 137.600 1 29 1004 18.1000 138.000 TC 30 18.1277 137.920 1 30 18.1000 138.000 30 1004 120 11 328
1954297N17138 1954 83 WP MM NOT_NAMED 1954-10-24 09:00:00 TS 18.7452 137.511 main 1477 1470 PPP______PPP__ WP151954 18.6574 137.622 30 -1 18.9125 137.315 9 1004 0 0 18.9125 137.315 1 29 1004 18.6574 137.622 TC 30 18.6741 137.567 1 30 18.6574 137.622 30 1003 120 12 325
1954297N17138 1954 83 WP MM NOT_NAMED 1954-10-24 12:00:00 TS 19.2333 137.133 1004 tokyo main 1466 1398 OOO______OOO__ jtwc_wp WP151954 19.2000 137.200 30 -1 19.3000 137.000 9 1004 0 0 0 19.3000 137.000 1 29 1004 19.2000 137.200 TC 30 19.2000 137.200 1 30 19.2000 137.200 30 1002 120 12 323
1954297N17138 1954 83 WP MM NOT_NAMED 1954-10-24 15:00:00 TS 19.7298 136.712 main 1398 1334 PPP______PPP__ WP151954 19.6927 136.705 32 -1 19.7976 136.663 9 1004 0 0 19.7976 136.670 1 29 1004 19.6927 136.705 TC 32 19.7055 136.824 1 31 19.6927 136.705 32 1001 120 13 325
1954297N17138 1954 83 WP MM NOT_NAMED 1954-10-24 18:00:00 TS 20.2696 136.363 1004 tokyo main 1324 1264 OOO______OPO__ jtwc_wp WP151954 20.2000 136.300 35 0 20.4000 136.400 9 1004 0 0 0 20.4000 136.400 1 29 1004 20.2000 136.300 TC 35 20.2177 136.480 1 32 20.2000 136.300 35 1001 120 12 336
1954297N17138 1954 83 WP MM NOT_NAMED 1954-10-24 21:00:00 TS 20.8576 136.185 main 1254 1189 PPP______PPP__ WP151954 20.7548 136.117 35 0 21.0549 136.297 9 1004 0 0 21.0549 136.240 1 29 1004 20.7548 136.117 TC 35 20.7710 136.221 1 33 20.7548 136.117 35 1000 120 13 351
1954297N17138 1954 83 WP MM NOT_NAMED 1954-10-25 00:00:00 TS 21.5333 136.150 1004 tokyo main 1193 1114 OOO______OOO__ jtwc_wp WP151954 21.4000 136.100 35 0 21.8000 136.300 9 1004 0 0 0 21.8000 136.200 1 29 1004 21.4000 136.100 TC 35 21.4000 136.100 2 35 21.4000 136.100 35 1000 120 15 0
1954297N17138 1954 83 WP MM NOT_NAMED 1954-10-25 03:00:00 TS 22.3204 136.183 main 1114 1041 PPP______PPP__ WP151954 22.1624 136.133 37 0 22.6424 136.298 9 1004 0 0 22.6349 136.240 1 29 1004 22.1624 136.133 TC 37 22.1579 136.159 2 36 22.1624 136.133 37 999 120 17 6
1954297N17138 1954 83 WP MM NOT_NAMED 1954-10-25 06:00:00 TS 23.1650 136.343 1004 tokyo main 1031 971 OOO______OPO__ jtwc_wp WP151954 23.0000 136.300 40 0 23.5000 136.400 9 1004 0 0 0 23.5000 136.400 1 29 1004 23.0000 136.300 TC 40 22.9899 136.360 2 37 23.0000 136.300 40 999 120 17 14
1954297N17138 1954 83 WP MM NOT_NAMED 1954-10-25 09:00:00 TS 23.9970 136.633 main 971 918 PPP______PPP__ WP151954 23.8577 136.619 40 0 24.2499 136.640 9 1004 0 0 24.3073 136.640 1 29 1004 23.8577 136.619 TC 40 23.8519 136.657 2 38 23.8577 136.619 40 998 120 18 20
1954297N17138 1954 83 WP MM NOT_NAMED 1954-10-25 12:00:00 TS 24.8167 137.000 1004 tokyo main 918 866 OOO______OOO__ jtwc_wp WP151954 24.7000 137.000 40 0 25.0000 137.000 9 1004 0 0 0 25.1000 137.000 1 29 1004 24.7000 137.000 TC 40 24.7000 137.000 2 40 24.7000 137.000 40 998 120 17 22
1954297N17138 1954 83 WP MM NOT_NAMED 1954-10-25 15:00:00 TS 25.6056 137.346 main 866 813 PPP______PPP__ WP151954 25.4648 137.293 40 0 25.8350 137.420 9 1004 0 0 25.8927 137.478 1 29 1004 25.4648 137.293 TC 40 25.5118 137.298 2 38 25.4648 137.293 40 998 90 17 23
1954297N17138 1954 83 WP MM NOT_NAMED 1954-10-25 18:00:00 TS 26.3828 137.722 1004 tokyo main 802 736 OOO______OPO__ jtwc_wp WP151954 26.2000 137.600 40 0 26.7000 137.900 9 1004 0 0 0 26.7000 138.000 1 29 1004 26.2000 137.600 TC 40 26.2969 137.633 2 37 26.2000 137.600 40 999 60 17 24
1954297N17138 1954 83 WP MM NOT_NAMED 1954-10-25 21:00:00 TS 27.1513 138.128 main 726 665 PPP______PPP__ WP151954 26.9649 137.978 37 0 27.4824 138.387 9 1004 0 0 27.4972 138.444 1 29 1004 26.9649 137.978 TC 37 27.0336 138.001 2 36 26.9649 137.978 37 1000 60 17 26
1954297N17138 1954 83 WP MM NOT_NAMED 1954-10-26 00:00:00 TS 27.9333 138.567 1004 tokyo main 669 591 OOO______OOO__ jtwc_wp WP151954 27.7000 138.400 35 0 28.4000 138.900 9 1004 0 0 0 28.4000 138.900 1 29 1004 27.7000 138.400 TC 35 27.7000 138.400 2 35 27.7000 138.400 35 1001 60 18 24
1954297N17138 1954 83 WP MM NOT_NAMED 1954-10-26 03:00:00 TS 28.8181 138.967 main 596 541 PPP______PPP__ WP151954 28.4099 138.842 30 -1 29.7847 139.227 9 1005 0 0 29.6123 139.220 1 29 1005 28.4099 138.842 TC 30 28.2817 138.825 2 31 28.4099 138.842 30 1002 60 20 26
1954297N17138 1954 83 WP MM NOT_NAMED 1954-10-26 06:00:00 MX 29.7091 139.576 1006 tokyo main 547 505 OOO______OPO__ jtwc_wp WP151954 29.0000 139.300 25 -1 31.0000 140.000 9 1006 0 0 0 30.7000 140.000 9 29 1006 29.0000 139.300 TC 25 28.7939 139.270 2 27 29.0000 139.300 25 1003 60 22 46
1954297N17138 1954 83 WP MM NOT_NAMED 1954-10-26 09:00:00 MX 30.3509 140.766 main 504 499 PPP______PPP__ WP151954 29.4053 139.752 22 -1 31.4118 141.787 9 1006 0 0 31.2543 141.783 9 29 1006 29.4053 139.752 TC 22 29.2591 139.730 2 23 29.4053 139.752 22 1004 60 30 66
1954297N17138 1954 83 WP MM NOT_NAMED 1954-10-26 12:00:00 MX 30.9000 142.733 1006 tokyo main 516 516 OOO______OOO__ jtwc_wp WP151954 29.7000 140.200 20 -1 31.5000 144.000 9 1006 0 0 0 31.5000 144.000 9 29 1006 29.7000 140.200 TC 20 29.7000 140.200 1 20 29.7000 140.200 20 1005 60 47 73
1954297N17138 1954 83 WP MM NOT_NAMED 1954-10-26 15:00:00 ET 31.7352 146.019 main 648 648 _PP___________ WP151954 -1 31.7694 146.000 9 1006 0 0 31.7010 146.039 9 29 1006 TC 1 46 77
1954297N17138 1954 83 WP MM NOT_NAMED 1954-10-26 18:00:00 ET 31.9000 148.000 1006 tokyo main 779 779 _OO___________ -1 32.0000 148.000 9 1006 0 0 0 31.8000 148.000 9 29 1006 1 33 86
1954297N17138 1954 83 WP MM NOT_NAMED 1954-10-26 21:00:00 ET 31.9827 149.896 main 925 925 _PP___________ -1 32.1193 150.002 9 1006 0 0 31.8460 149.789 9 29 1006 1 32 87
1954297N17138 1954 83 WP MM NOT_NAMED 1954-10-27 00:00:00 ET 32.0500 151.750 1006 tokyo main 1080 1080 _OO___________ -1 32.2000 152.000 6 1006 0 0 0 31.9000 151.500 9 29 1006 32 87
1954297N17138 1954 83 WP MM NOT_NAMED 1954-10-27 03:00:00 ET 32.1759 153.718 main 1240 1240 _PP___________ -1 32.3102 154.149 6 1006 0 0 32.0416 153.286 9 1006 32 85
1954297N17138 1954 83 WP MM NOT_NAMED 1954-10-27 06:00:00 ET 32.3000 155.500 1006 tokyo main 1394 1394 _OO___________ -1 32.4000 156.000 6 1006 0 0 0 32.2000 155.000 9 1006 27 86
1954297N17138 1954 83 WP MM NOT_NAMED 1954-10-27 09:00:00 ET 32.3755 156.882 main 1514 1514 _PP___________ -1 32.4369 157.151 6 1008 0 0 32.3141 156.613 9 1008 21 86
1954297N17138 1954 83 WP MM NOT_NAMED 1954-10-27 12:00:00 ET 32.4500 158.000 1010 tokyo main 1608 1612 _OO___________ -1 32.5000 158.000 6 1010 0 0 0 32.4000 158.000 9 1010 18 85
1954297N17138 1954 83 WP MM NOT_NAMED 1954-10-27 15:00:00 ET 32.5482 159.038 main 1660 1655 _PP___________ -1 32.6417 159.000 6 1011 0 0 32.4546 159.075 9 1011 17 83
1954297N17138 1954 83 WP MM NOT_NAMED 1954-10-27 18:00:00 ET 32.6500 160.000 1012 tokyo main 1683 1683 _OO___________ -1 32.8000 160.000 6 1012 0 0 0 32.5000 160.000 9 1012 17 84
1954297N17138 1954 83 WP MM NOT_NAMED 1954-10-27 21:00:00 ET 32.7355 161.000 main 1729 1729 _PP___________ -1 32.9217 161.000 6 1013 0 0 32.5492 161.000 9 1013 17 85
1954297N17138 1954 83 WP MM NOT_NAMED 1954-10-28 00:00:00 ET 32.8000 162.000 1014 tokyo main 1769 1769 _OO___________ -1 33.0000 162.000 6 1014 0 0 0 32.6000 162.000 9 1014 17 87
1954297N17138 1954 83 WP MM NOT_NAMED 1954-10-28 03:00:00 ET 32.8280 163.000 main 1821 1821 _PP___________ -1 33.0142 163.001 6 1014 0 0 32.6417 163.000 9 1014 17 88
1954297N17138 1954 83 WP MM NOT_NAMED 1954-10-28 06:00:00 ET 32.8500 164.000 1014 tokyo main 1865 1870 _OO___________ -1 33.0000 164.000 6 1014 0 0 0 32.7000 164.000 9 1014 17 88
1954297N17138 1954 83 WP MM NOT_NAMED 1954-10-28 09:00:00 ET 32.9007 165.075 main 1925 1925 _PP___________ -1 33.0007 165.075 6 1014 0 0 32.8007 165.074 9 1014 17 87
1954297N17138 1954 83 WP MM NOT_NAMED 1954-10-28 12:00:00 ET 32.9500 166.000 1014 tokyo main 1967 1967 _OO___________ -1 33.0000 166.000 6 1014 0 0 0 32.9000 166.000 9 1014 13 86
1954297N17138 1954 83 WP MM NOT_NAMED 1954-10-28 15:00:00 ET 32.9806 166.600 main 2001 2001 _PP___________ -1 32.9994 166.600 6 1014 0 0 32.9619 166.600 9 1014 8 87
1954297N17138 1954 83 WP MM NOT_NAMED 1954-10-28 18:00:00 ET 33.0000 167.000 1014 tokyo main 2025 _OO___________ -1 33.0000 167.000 6 1014 0 0 0 33.0000 167.000 9 1014 7 87

デジタル台風データ・検索

IBTrACS Databaseについて

本データベースは、米国NOAAが公開する1842年以降の世界の熱帯低気圧のベストトラックデータアーカイブInternational Best Track Archive for Climate Stewardship (IBTrACS)を、ウェブで閲覧しやすい形式に変換したものです。

最終更新日:2021-10-21